Time;durP1;ratioP1;P1;durP2;ratioP2;P2;SDS_P1;SDS_P2;PMS_P1;PMS_P2;Temp;Humidity;BMP_temperature;BMP_pressure;BME280_temperature;BME280_humidity;BME280_pressure;Samples;Min_cycle;Max_cycle;Signal;HPM_P1;HPM_P2
2021/12/15 00:01:44;;;;;;;8.02;6.15;;;;;;;8.58;78.37;100930.78;4983197;28;20062;-76
2021/12/15 00:04:10;;;;;;;8.75;6.43;;;;;;;8.54;78.53;100926.47;4967008;28;20042;-78
2021/12/15 00:06:37;;;;;;;7.45;5.63;;;;;;;8.50;78.22;100923.06;4983549;28;20747;-76
2021/12/15 00:09:07;;;;;;;6.82;5.07;;;;;;;8.54;78.50;100921.22;4967104;28;20045;-75
2021/12/15 00:11:36;;;;;;;8.05;5.78;;;;;;;8.57;78.07;100926.44;4975242;28;20128;-76
2021/12/15 00:14:12;;;;;;;10.27;5.50;;;;;;;8.58;77.97;100920.25;4970078;28;20046;-77
2021/12/15 00:16:38;;;;;;;10.27;5.93;;;;;;;8.57;78.04;100916.78;4987198;28;20117;-78
2021/12/15 00:19:04;;;;;;;10.75;5.80;;;;;;;8.58;78.26;100909.75;4969442;28;20069;-75
2021/12/15 00:21:34;;;;;;;9.55;4.80;;;;;;;8.57;78.22;100908.91;4968579;28;20710;-77
2021/12/15 00:23:59;;;;;;;8.68;5.10;;;;;;;8.59;77.93;100911.50;4970305;28;20129;-79
2021/12/15 00:26:25;;;;;;;5.90;4.15;;;;;;;8.61;78.25;100907.03;4988235;28;20126;-78
2021/12/15 00:28:51;;;;;;;9.48;5.50;;;;;;;8.65;78.16;100902.59;4970711;28;20041;-77
2021/12/15 00:31:18;;;;;;;6.72;5.32;;;;;;;8.67;77.81;100901.66;4956082;28;20039;-76
2021/12/15 00:33:45;;;;;;;8.45;5.05;;;;;;;8.68;78.07;100905.16;4970770;28;20042;-78
2021/12/15 00:36:12;;;;;;;7.68;5.35;;;;;;;8.64;77.82;100903.47;4982312;28;20041;-77
2021/12/15 00:38:38;;;;;;;6.68;4.85;;;;;;;8.61;77.65;100899.16;4987229;28;20064;-76
2021/12/15 00:41:04;;;;;;;6.35;4.45;;;;;;;8.62;77.54;100914.06;4989176;28;20064;-77
2021/12/15 00:43:30;;;;;;;6.82;4.50;;;;;;;8.60;78.28;100910.59;4996200;28;20038;-76
2021/12/15 00:45:55;;;;;;;5.65;3.78;;;;;;;8.64;77.82;100908.75;4993201;28;20037;-77
2021/12/15 00:48:22;;;;;;;12.57;5.28;;;;;;;8.69;77.72;100915.63;4993474;28;20039;-76
2021/12/15 00:50:48;;;;;;;7.20;4.88;;;;;;;8.68;78.20;100910.41;4989965;28;20046;-77
2021/12/15 00:53:14;;;;;;;5.68;3.63;;;;;;;8.68;77.77;100913.03;4990789;28;20061;-78
2021/12/15 00:55:43;;;;;;;5.65;3.05;;;;;;;8.72;77.40;100912.94;4972918;28;20051;-77
2021/12/15 00:58:09;;;;;;;4.95;3.63;;;;;;;8.76;77.77;100911.97;4975424;28;20026;-78
2021/12/15 01:00:51;;;;;;;6.18;4.18;;;;;;;8.79;77.54;100911.88;4940782;28;1131132;-78
2021/12/15 01:03:17;;;;;;;5.00;3.95;;;;;;;8.81;77.33;100920.59;4980525;28;20027;-78
2021/12/15 01:05:49;;;;;;;5.40;3.95;;;;;;;8.82;77.45;100916.22;4998482;28;20165;-75
2021/12/15 01:08:18;;;;;;;5.72;4.03;;;;;;;8.81;77.17;100915.34;4966828;28;20069;-76
2021/12/15 01:21:49;;;;;;;4.07;3.15;;;;;;;8.84;77.04;100921.44;4974556;28;20046;-77
2021/12/15 01:24:15;;;;;;;4.65;3.25;;;;;;;8.82;77.26;100914.44;4990098;28;20061;-77
2021/12/15 01:26:41;;;;;;;4.88;3.42;;;;;;;8.82;77.09;100918.84;4989884;28;20398;-77
2021/12/15 01:29:07;;;;;;;5.40;3.58;;;;;;;8.81;77.29;100925.88;4991565;28;20039;-77
2021/12/15 01:31:33;;;;;;;6.10;4.13;;;;;;;8.82;77.13;100924.97;4990741;28;20042;-74
2021/12/15 01:33:58;;;;;;;5.35;3.15;;;;;;;8.81;77.76;100933.75;4972700;28;20050;-77
2021/12/15 01:36:24;;;;;;;4.53;3.30;;;;;;;8.80;78.05;100934.63;4990472;28;20509;-78
2021/12/15 01:38:50;;;;;;;5.40;3.30;;;;;;;8.81;77.53;100935.50;4989598;28;20061;-78
2021/12/15 01:41:22;;;;;;;5.18;3.67;;;;;;;8.77;78.22;100933.84;4989913;28;20034;-78
2021/12/15 01:49:28;;;;;;;5.45;3.88;;;;;;;8.70;79.57;100935.75;5010806;28;20038;-80
2021/12/15 01:51:56;;;;;;;5.88;4.03;;;;;;;8.61;79.82;100941.22;4999768;28;20038;-79
2021/12/15 01:54:24;;;;;;;9.18;4.55;;;;;;;8.60;80.41;100944.75;4980810;28;20105;-79
2021/12/15 01:56:50;;;;;;;6.15;4.03;;;;;;;8.61;80.36;100935.97;4956878;28;20027;-79
2021/12/15 01:59:19;;;;;;;6.80;4.35;;;;;;;8.56;80.94;100936.06;4991754;28;20045;-79
2021/12/15 02:01:45;;;;;;;8.27;4.50;;;;;;;8.57;81.02;100945.69;4939976;28;20041;-78
2021/12/15 02:04:10;;;;;;;8.77;4.30;;;;;;;8.59;81.62;100935.16;4992057;28;20034;-78
2021/12/15 02:06:41;;;;;;;7.30;3.90;;;;;;;8.58;81.43;100939.53;4990537;28;20038;-77
2021/12/15 02:09:06;;;;;;;6.50;4.28;;;;;;;8.58;81.24;100930.78;4990799;28;20066;-77
2021/12/15 02:11:32;;;;;;;6.97;4.30;;;;;;;8.59;81.17;100935.16;4957646;28;20124;-76
2021/12/15 02:13:57;;;;;;;6.40;4.13;;;;;;;8.59;81.82;100935.16;4989984;28;20114;-77
2021/12/15 02:16:22;;;;;;;5.95;4.43;;;;;;;8.57;81.48;100934.31;4990629;28;20043;-77
2021/12/15 02:18:48;;;;;;;6.93;5.28;;;;;;;8.54;81.81;100931.75;4997555;28;20052;-76
2021/12/15 02:21:17;;;;;;;6.63;4.32;;;;;;;8.53;82.22;100925.63;4975875;28;20062;-76
2021/12/15 02:23:49;;;;;;;5.55;3.30;;;;;;;8.54;82.12;100926.47;4972733;28;20026;-75
2021/12/15 02:26:31;;;;;;;7.07;4.57;;;;;;;8.51;81.97;100926.56;4989539;28;20050;-76
2021/12/15 02:28:59;;;;;;;5.15;3.20;;;;;;;8.49;81.80;100931.88;4973685;28;20042;-75
2021/12/15 02:31:54;;;;;;;8.18;3.58;;;;;;;8.48;82.31;100931.88;4991098;28;20035;-76
2021/12/15 02:37:16;;;;;;;7.05;4.05;;;;;;;8.43;82.72;100931.97;4997712;28;20485;-77
2021/12/15 02:39:44;;;;;;;7.65;5.10;;;;;;;8.40;82.97;100932.06;4995147;28;20037;-77
2021/12/15 02:42:09;;;;;;;6.13;4.53;;;;;;;8.36;83.55;100932.97;4995387;28;20034;-77
2021/12/15 02:44:35;;;;;;;7.20;4.05;;;;;;;8.32;83.67;100933.97;4995679;28;20030;-78
2021/12/15 02:47:01;;;;;;;6.07;3.67;;;;;;;8.33;83.94;100939.16;4978986;28;20117;-78
2021/12/15 02:49:28;;;;;;;7.30;4.20;;;;;;;8.35;83.77;100941.78;4968278;28;20053;-76
2021/12/15 02:51:58;;;;;;;5.28;4.45;;;;;;;8.34;84.24;100940.03;4987149;28;20038;-76
2021/12/15 02:54:24;;;;;;;9.68;5.28;;;;;;;8.31;84.45;100938.34;5003379;28;20068;-76
2021/12/15 02:56:53;;;;;;;5.47;3.83;;;;;;;8.30;84.43;100934.00;5002700;28;20042;-75
2021/12/15 02:59:30;;;;;;;9.10;4.38;;;;;;;8.32;84.05;100942.72;4981691;28;20045;-77
2021/12/15 03:02:08;;;;;;;5.55;4.10;;;;;;;8.30;84.36;100943.63;4962961;28;20517;-76
2021/12/15 03:04:45;;;;;;;6.63;4.13;;;;;;;8.32;83.72;100942.72;4962350;28;20034;-78
2021/12/15 03:15:46;;;;;;;4.70;3.50;;;;;;;8.31;83.98;100938.34;4976349;28;20118;-78
2021/12/15 03:18:19;;;;;;;5.43;3.55;;;;;;;8.24;84.51;100934.09;4991852;28;20073;-77
2021/12/15 03:21:16;;;;;;;5.53;3.33;;;;;;;8.21;85.16;100947.31;4975151;28;20038;-79
2021/12/15 03:23:52;;;;;;;6.85;3.83;;;;;;;8.17;85.52;100940.38;4967182;28;20036;-78
2021/12/15 03:26:26;;;;;;;9.20;3.97;;;;;;;8.18;85.07;100939.50;4974942;28;20041;-81
2021/12/15 03:39:29;;;;;;;6.35;3.42;;;;;;;8.15;84.99;100947.44;4999270;28;20052;-79
2021/12/15 03:42:00;;;;;;;5.18;3.25;;;;;;;8.15;84.79;100940.44;4993427;28;20061;-77
2021/12/15 03:44:26;;;;;;;7.75;3.72;;;;;;;8.18;84.85;100942.13;5020673;28;20064;-76
2021/12/15 03:46:52;;;;;;;6.63;3.78;;;;;;;8.23;85.06;100942.91;5006125;28;20056;-77
2021/12/15 03:49:18;;;;;;;6.07;3.78;;;;;;;8.24;85.11;100949.88;5016641;28;20030;-79
2021/12/15 03:51:44;;;;;;;5.68;2.85;;;;;;;8.22;85.31;100942.91;4984847;28;20038;-78
2021/12/15 03:54:10;;;;;;;7.43;3.95;;;;;;;8.24;84.81;100944.59;5017801;28;20030;-78
2021/12/15 03:56:39;;;;;;;4.95;3.55;;;;;;;8.24;84.89;100941.97;5014907;28;20034;-79
2021/12/15 03:59:06;;;;;;;6.22;3.40;;;;;;;8.23;84.54;100949.91;5002553;28;20105;-77
2021/12/15 04:01:32;;;;;;;8.77;3.40;;;;;;;8.20;84.94;100942.97;4989757;28;20037;-77
2021/12/15 04:03:57;;;;;;;4.40;3.35;;;;;;;8.23;84.75;100948.16;5006520;28;20036;-75
2021/12/15 04:06:31;;;;;;;4.03;2.85;;;;;;;8.27;83.90;100951.56;5004661;28;20121;-74
2021/12/15 04:08:57;;;;;;;4.20;3.10;;;;;;;8.27;84.47;100955.06;5019672;28;20033;-73
2021/12/15 04:11:27;;;;;;;4.50;2.65;;;;;;;8.28;83.83;100956.78;5018600;28;20048;-77
2021/12/15 04:13:59;;;;;;;5.72;3.50;;;;;;;8.27;84.25;100960.34;4994605;28;20034;-77
2021/12/15 04:18:59;;;;;;;5.05;3.72;;;;;;;8.22;84.87;100956.94;5011611;28;20034;-76
2021/12/15 04:21:25;;;;;;;5.75;4.03;;;;;;;8.16;85.17;100957.06;4977097;28;20105;-75
2021/12/15 04:23:55;;;;;;;3.92;3.00;;;;;;;8.16;85.32;100967.56;4990392;28;20081;-76
2021/12/15 04:26:21;;;;;;;5.22;3.35;;;;;;;8.18;85.63;100960.50;4990645;28;20128;-75
2021/12/15 04:28:47;;;;;;;5.00;3.63;;;;;;;8.19;84.85;100964.84;4974399;28;20046;-75
2021/12/15 04:31:16;;;;;;;9.02;6.47;;;;;;;8.18;85.65;100961.38;4974550;28;20042;-75
2021/12/15 04:33:50;;;;;;;4.85;3.38;;;;;;;8.17;85.13;100964.91;4974048;28;20030;-75
2021/12/15 04:36:16;;;;;;;3.95;2.75;;;;;;;8.19;85.07;100967.47;4991635;28;20036;-75
2021/12/15 04:38:43;;;;;;;4.47;3.33;;;;;;;8.18;85.25;100961.38;4992920;28;20038;-76
2021/12/15 04:41:12;;;;;;;5.82;3.90;;;;;;;8.14;85.22;100967.56;4993885;28;20034;-75
2021/12/15 04:43:40;;;;;;;6.47;3.60;;;;;;;8.16;84.70;100964.94;4993451;28;20034;-76
2021/12/15 04:46:07;;;;;;;5.68;3.22;;;;;;;8.18;85.10;100960.50;4992342;28;20175;-77
2021/12/15 04:48:34;;;;;;;4.63;3.40;;;;;;;8.21;84.97;100960.44;4996355;28;20061;-77
2021/12/15 04:50:59;;;;;;;5.35;2.90;;;;;;;8.24;84.77;100959.50;4974583;28;20502;-77
2021/12/15 04:53:25;;;;;;;5.35;3.72;;;;;;;8.25;84.95;100961.25;4972458;28;20049;-77
2021/12/15 04:55:50;;;;;;;5.03;3.35;;;;;;;8.27;84.74;100970.84;4988970;28;20632;-75
2021/12/15 04:58:16;;;;;;;4.25;2.97;;;;;;;8.27;84.48;100969.94;4971590;28;20049;-74
2021/12/15 05:00:53;;;;;;;4.10;3.22;;;;;;;8.27;84.64;100967.31;4988888;28;20507;-75
2021/12/15 05:03:19;;;;;;;5.38;3.70;;;;;;;8.23;84.66;100973.56;4989467;28;20038;-74
2021/12/15 05:05:45;;;;;;;5.25;3.03;;;;;;;8.24;84.69;100965.63;4988669;28;20103;-76
2021/12/15 05:08:10;;;;;;;3.53;2.67;;;;;;;8.25;84.40;100971.78;4972591;28;20035;-76
2021/12/15 05:10:37;;;;;;;6.25;3.75;;;;;;;8.23;84.09;100973.56;4990310;28;20081;-78
2021/12/15 05:13:03;;;;;;;4.00;3.10;;;;;;;8.23;84.52;100976.19;4989304;28;20529;-77
2021/12/15 05:15:29;;;;;;;3.72;2.47;;;;;;;8.24;84.23;100973.50;4989295;28;20040;-77
2021/12/15 05:17:55;;;;;;;4.82;3.33;;;;;;;8.22;84.56;100975.31;4990621;28;20038;-77
2021/12/15 05:20:22;;;;;;;5.25;2.70;;;;;;;8.23;84.26;100984.06;4990671;28;20134;-77
2021/12/15 05:22:48;;;;;;;3.35;2.38;;;;;;;8.21;84.27;100981.47;4941727;28;20060;-77
2021/12/15 05:25:13;;;;;;;5.30;2.95;;;;;;;8.23;84.28;100984.94;4990644;28;20054;-75
2021/12/15 05:27:40;;;;;;;5.38;3.40;;;;;;;8.24;84.03;100980.53;4994952;28;20053;-77
2021/12/15 05:30:08;;;;;;;5.45;2.90;;;;;;;8.24;84.14;100986.63;4989463;28;20062;-76
2021/12/15 05:32:33;;;;;;;5.13;3.28;;;;;;;8.27;84.38;100988.34;4989699;28;20042;-77
2021/12/15 05:34:59;;;;;;;3.92;3.00;;;;;;;8.25;84.86;100991.03;4969578;28;20384;-77
2021/12/15 05:37:27;;;;;;;4.32;2.90;;;;;;;8.25;84.29;100985.75;4969344;28;20170;-76
2021/12/15 05:39:54;;;;;;;3.60;3.03;;;;;;;8.26;84.66;100984.84;4968636;28;20042;-74
2021/12/15 05:42:21;;;;;;;4.03;3.25;;;;;;;8.24;84.92;100989.28;4969543;28;20074;-75
2021/12/15 05:44:48;;;;;;;5.10;3.88;;;;;;;8.24;84.46;100984.00;4951997;28;20105;-76
2021/12/15 05:47:15;;;;;;;6.00;3.45;;;;;;;8.23;84.61;100992.81;4974482;28;20035;-75
2021/12/15 05:49:40;;;;;;;4.30;3.35;;;;;;;8.21;84.25;100991.09;4973628;28;20039;-74
2021/12/15 05:52:07;;;;;;;4.10;3.13;;;;;;;8.17;84.39;100987.66;4973040;28;20060;-78
2021/12/15 05:54:32;;;;;;;5.80;3.80;;;;;;;8.17;84.33;100988.56;4969872;28;20035;-75
2021/12/15 05:56:58;;;;;;;7.80;3.78;;;;;;;8.19;84.52;100988.50;4969610;28;20043;-78
2021/12/15 05:59:24;;;;;;;3.72;2.13;;;;;;;8.21;84.75;100999.84;4969147;28;20038;-78
2021/12/15 06:01:50;;;;;;;3.83;2.80;;;;;;;8.25;84.29;101003.28;4951957;28;20490;-79
2021/12/15 06:04:16;;;;;;;6.57;3.13;;;;;;;8.28;84.20;101008.47;4969546;28;20039;-76
2021/12/15 06:06:42;;;;;;;6.70;3.75;;;;;;;8.27;84.25;101007.63;4969376;28;20039;-80
2021/12/15 06:09:09;;;;;;;5.05;4.00;;;;;;;8.27;84.73;101004.09;4953057;28;20041;-76
2021/12/15 06:11:35;;;;;;;5.93;3.15;;;;;;;8.28;85.52;101008.47;4987333;28;20421;-75
2021/12/15 06:14:01;;;;;;;10.50;3.33;;;;;;;8.22;85.69;101009.47;5002869;28;20046;-75
2021/12/15 06:16:26;;;;;;;4.57;2.55;;;;;;;8.23;85.53;101005.09;4975216;28;20406;-76
2021/12/15 06:18:53;;;;;;;4.25;2.58;;;;;;;8.22;85.73;101008.59;4977046;28;20054;-77
2021/12/15 06:21:20;;;;;;;4.07;2.30;;;;;;;8.21;85.63;101005.09;4993190;28;20069;-76
2021/12/15 06:23:47;;;;;;;3.28;2.42;;;;;;;8.23;85.79;101016.44;4991883;28;20038;-75
2021/12/15 06:26:13;;;;;;;3.08;2.15;;;;;;;8.21;85.75;101014.75;4975315;28;20038;-76
2021/12/15 06:28:39;;;;;;;3.17;2.42;;;;;;;8.25;85.34;101011.19;4991938;28;20510;-76
2021/12/15 06:31:07;;;;;;;2.50;1.73;;;;;;;8.28;85.77;101017.22;4992386;28;20129;-76
2021/12/15 06:33:34;;;;;;;3.95;2.10;;;;;;;8.29;85.66;101020.72;4992020;28;20037;-75
2021/12/15 06:36:01;;;;;;;3.00;2.17;;;;;;;8.30;85.12;101023.31;4992579;28;20045;-75
2021/12/15 06:38:33;;;;;;;2.90;2.10;;;;;;;8.32;85.25;101016.28;4992774;28;20034;-76
2021/12/15 06:40:59;;;;;;;3.22;2.25;;;;;;;8.34;85.14;101021.47;4993871;28;20030;-74
2021/12/15 06:43:25;;;;;;;2.97;2.40;;;;;;;8.31;85.03;101014.53;4986741;28;20030;-75
2021/12/15 06:46:16;;;;;;;4.18;2.95;;;;;;;8.29;85.71;101021.56;5002356;28;20041;-77
2021/12/15 06:59:37;;;;;;;7.40;3.28;;;;;;;8.20;85.88;101034.91;4993859;28;20037;-77
2021/12/15 07:02:04;;;;;;;3.50;2.58;;;;;;;8.17;86.76;101034.94;4959609;28;20026;-78
2021/12/15 07:04:30;;;;;;;2.83;2.30;;;;;;;8.16;86.34;101035.84;4993287;28;20031;-77
2021/12/15 07:06:56;;;;;;;4.18;2.92;;;;;;;8.11;86.05;101035.94;4976056;28;20038;-77
2021/12/15 07:09:23;;;;;;;4.28;2.80;;;;;;;8.13;87.12;101031.53;4993971;28;20038;-76
2021/12/15 07:11:50;;;;;;;4.18;2.70;;;;;;;8.15;86.93;101045.50;4960734;28;20046;-78
2021/12/15 07:14:17;;;;;;;3.42;2.35;;;;;;;8.16;86.60;101036.72;4977694;28;20033;-77
2021/12/15 07:16:46;;;;;;;3.13;2.17;;;;;;;8.16;86.61;101038.47;4975964;28;20038;-78
2021/12/15 07:19:29;;;;;;;3.67;2.70;;;;;;;8.19;86.49;101043.66;4994167;28;20510;-79
2021/12/15 07:22:16;;;;;;;2.88;2.08;;;;;;;8.18;86.15;101042.81;4993169;28;20037;-78
2021/12/15 07:24:43;;;;;;;2.67;2.08;;;;;;;8.18;85.85;101053.31;4993192;28;20494;-78
2021/12/15 07:27:09;;;;;;;5.15;2.70;;;;;;;8.18;85.55;101055.09;4975683;28;20041;-78
2021/12/15 07:29:37;;;;;;;4.90;3.00;;;;;;;8.20;85.64;101060.31;4958473;28;20562;-78
2021/12/15 07:32:03;;;;;;;5.10;2.22;;;;;;;8.17;86.24;101053.31;4974050;28;20091;-77
2021/12/15 07:34:29;;;;;;;3.60;2.30;;;;;;;8.19;85.79;101056.78;4991236;28;20030;-77
2021/12/15 07:36:54;;;;;;;3.65;2.50;;;;;;;8.20;85.42;101055.91;4950109;28;20429;-78
2021/12/15 07:39:20;;;;;;;3.75;2.28;;;;;;;8.22;86.03;101062.03;4970836;28;20395;-76
2021/12/15 07:41:52;;;;;;;4.53;3.13;;;;;;;8.22;86.08;101074.25;4970887;28;20058;-76
2021/12/15 07:44:20;;;;;;;3.05;2.45;;;;;;;8.22;86.28;101072.53;4972170;28;20039;-84
2021/12/15 07:46:48;;;;;;;3.55;2.55;;;;;;;8.26;86.05;101076.81;4967502;28;20019;-79
2021/12/15 07:49:14;;;;;;;3.35;2.35;;;;;;;8.27;86.07;101078.56;4964361;28;20115;-77
2021/12/15 07:51:43;;;;;;;5.97;2.60;;;;;;;8.25;85.68;101076.84;4962625;28;20131;-76
2021/12/15 07:54:09;;;;;;;4.40;2.15;;;;;;;8.22;86.83;101075.16;4987812;28;20030;-75
2021/12/15 07:56:34;;;;;;;3.25;2.35;;;;;;;8.23;86.65;101082.13;4978164;28;20037;-78
2021/12/15 07:59:00;;;;;;;17.00;2.78;;;;;;;8.22;86.30;101074.25;4973697;28;20031;-78
2021/12/15 08:01:25;;;;;;;2.72;1.90;;;;;;;8.23;86.32;101076.88;4955108;28;20034;-76
2021/12/15 08:03:54;;;;;;;3.47;2.38;;;;;;;8.23;86.79;101074.25;4955532;28;20086;-77
2021/12/15 08:06:21;;;;;;;4.95;1.80;;;;;;;8.21;86.82;101077.78;4974813;28;20049;-77
2021/12/15 08:08:47;;;;;;;2.47;1.77;;;;;;;8.19;86.72;101077.81;4972640;28;20062;-77
2021/12/15 08:11:13;;;;;;;3.10;1.80;;;;;;;8.18;86.89;101079.59;4978792;28;20058;-79
2021/12/15 08:13:39;;;;;;;2.63;1.85;;;;;;;8.16;86.42;101078.75;4939858;28;20031;-78
2021/12/15 08:16:05;;;;;;;3.45;2.28;;;;;;;8.19;87.16;101077.81;4955375;28;20066;-77
2021/12/15 08:18:31;;;;;;;5.32;2.50;;;;;;;8.23;86.49;101083.91;4973179;28;20042;-80
2021/12/15 08:20:57;;;;;;;4.03;2.63;;;;;;;8.28;86.61;101085.53;4972103;28;20047;-76
2021/12/15 08:23:23;;;;;;;3.78;2.90;;;;;;;8.29;86.40;101078.50;4953229;28;20039;-76
2021/12/15 08:25:49;;;;;;;4.47;2.95;;;;;;;8.31;86.35;101085.47;4970152;28;20486;-75
2021/12/15 08:28:15;;;;;;;3.83;2.72;;;;;;;8.31;85.67;101097.75;4971782;28;20039;-76
2021/12/15 08:30:43;;;;;;;4.93;2.85;;;;;;;8.33;86.03;101085.44;4970872;28;20118;-75
2021/12/15 08:33:12;;;;;;;3.75;2.60;;;;;;;8.38;86.15;101092.34;4970697;28;20098;-75
2021/12/15 08:35:44;;;;;;;4.95;3.10;;;;;;;8.44;85.70;101093.16;4953648;28;20101;-74
2021/12/15 08:38:11;;;;;;;3.83;2.72;;;;;;;8.43;85.81;101100.16;4971598;28;20089;-75
2021/12/15 08:40:39;;;;;;;5.63;3.53;;;;;;;8.47;85.02;101099.22;4971183;28;20486;-74
2021/12/15 08:43:07;;;;;;;4.63;3.33;;;;;;;8.49;85.32;101104.44;4971035;28;20050;-74
2021/12/15 08:45:34;;;;;;;4.25;3.35;;;;;;;8.52;85.22;101105.25;4952388;28;20039;-74
2021/12/15 08:48:00;;;;;;;3.92;2.90;;;;;;;8.53;84.66;101106.97;4983979;28;20038;-74
2021/12/15 08:50:29;;;;;;;4.68;3.08;;;;;;;8.57;84.34;101102.53;4989269;28;20043;-74
2021/12/15 08:52:56;;;;;;;4.90;3.55;;;;;;;8.59;84.44;101103.38;4989436;28;20035;-74
2021/12/15 08:55:22;;;;;;;3.95;2.90;;;;;;;8.59;84.25;101098.13;4988594;28;20044;-74
2021/12/15 08:57:50;;;;;;;4.32;3.15;;;;;;;8.56;83.89;101101.66;4989324;28;20031;-73
2021/12/15 09:00:18;;;;;;;5.22;3.72;;;;;;;8.57;84.42;101099.91;4989532;28;20168;-74
2021/12/15 09:02:44;;;;;;;5.15;3.83;;;;;;;8.58;83.90;101097.22;4991276;28;20034;-74
2021/12/15 09:05:10;;;;;;;4.57;3.03;;;;;;;8.57;83.85;101103.41;4990498;28;20045;-74
2021/12/15 09:07:35;;;;;;;4.00;3.28;;;;;;;8.60;84.35;101105.09;4992096;28;20034;-74
2021/12/15 09:10:01;;;;;;;4.63;3.30;;;;;;;8.59;84.21;101109.50;4973788;28;20085;-76
2021/12/15 09:12:26;;;;;;;3.83;2.83;;;;;;;8.60;83.57;101098.06;4974045;28;20043;-75
2021/12/15 09:14:52;;;;;;;5.78;4.13;;;;;;;8.62;83.60;101103.31;4973170;28;20086;-73
2021/12/15 09:17:17;;;;;;;5.82;4.50;;;;;;;8.65;83.97;101105.88;4989170;28;20451;-74
2021/12/15 09:19:43;;;;;;;4.43;3.38;;;;;;;8.66;83.22;101104.97;4979005;28;20046;-73
2021/12/15 09:22:08;;;;;;;4.85;3.83;;;;;;;8.67;84.18;101101.47;4983292;28;20509;-73
2021/12/15 09:24:34;;;;;;;5.32;3.50;;;;;;;8.70;84.41;101105.78;4985420;28;20038;-73
2021/12/15 09:27:00;;;;;;;6.07;4.00;;;;;;;8.72;83.67;101104.00;5000307;28;20124;-73
2021/12/15 09:29:26;;;;;;;6.28;3.63;;;;;;;8.72;83.41;101104.84;4987994;28;20034;-74
2021/12/15 09:31:53;;;;;;;5.68;4.07;;;;;;;8.79;82.90;101109.09;4998870;28;20083;-73
2021/12/15 09:34:19;;;;;;;8.07;4.10;;;;;;;8.84;82.95;101100.25;4974770;28;20038;-76
2021/12/15 09:36:50;;;;;;;4.80;3.85;;;;;;;8.84;82.80;101109.00;4989210;28;20050;-77
2021/12/15 09:39:19;;;;;;;5.18;4.25;;;;;;;8.90;83.61;101108.84;5006506;28;20041;-77
2021/12/15 09:41:45;;;;;;;5.53;4.43;;;;;;;8.96;82.58;101107.88;4993175;28;20113;-77
2021/12/15 09:44:16;;;;;;;5.72;3.40;;;;;;;9.00;82.59;101113.03;4998210;28;20133;-77
2021/12/15 10:03:13;;;;;;;9.52;4.28;;;;;;;9.21;81.63;101124.00;4990475;28;20154;-77
2021/12/15 10:05:45;;;;;;;4.15;3.45;;;;;;;9.20;81.82;101123.09;4990102;28;20054;-77
2021/12/15 10:19:19;;;;;;;4.88;4.35;;;;;;;9.24;81.41;101130.03;5001060;28;20045;-79
2021/12/15 10:22:16;;;;;;;4.82;3.38;;;;;;;9.21;80.97;101119.59;4998220;28;20034;-77
2021/12/15 10:24:52;;;;;;;5.95;4.18;;;;;;;9.20;81.78;101131.00;4997899;28;20042;-78
2021/12/15 10:27:42;;;;;;;4.93;3.67;;;;;;;9.21;81.95;101127.50;4952396;28;20038;-77
2021/12/15 10:30:37;;;;;;;5.15;3.80;;;;;;;9.18;81.86;101129.31;4987484;28;20169;-77
2021/12/15 10:33:13;;;;;;;5.47;4.50;;;;;;;9.17;81.94;101132.84;4974017;28;20039;-77
2021/12/15 10:35:46;;;;;;;5.47;4.32;;;;;;;9.19;81.97;101136.31;4971427;28;20050;-76
2021/12/15 10:38:18;;;;;;;4.90;3.80;;;;;;;9.20;82.12;101140.66;4994407;28;20109;-77
2021/12/15 10:40:51;;;;;;;5.38;3.63;;;;;;;9.17;81.66;101128.44;4974480;28;20066;-77
2021/12/15 10:43:21;;;;;;;5.68;4.00;;;;;;;9.16;81.88;101132.00;4956998;28;20038;-78
2021/12/15 10:45:53;;;;;;;5.60;3.67;;;;;;;9.17;82.16;101133.72;4964458;28;20042;-78
2021/12/15 10:48:46;;;;;;;5.18;3.90;;;;;;;9.18;82.19;101135.47;4969191;28;20035;-78
2021/12/15 10:51:25;;;;;;;6.78;4.60;;;;;;;9.19;82.37;101131.06;4982591;28;20050;-78
2021/12/15 10:53:52;;;;;;;6.05;3.90;;;;;;;9.20;82.28;101125.75;4988701;28;20118;-77
2021/12/15 10:56:22;;;;;;;4.68;3.20;;;;;;;9.23;82.53;101117.81;4972528;28;20034;-77
2021/12/15 10:58:53;;;;;;;7.20;3.45;;;;;;;9.28;82.57;101124.69;4974930;28;20045;-79
2021/12/15 11:01:39;;;;;;;4.20;3.00;;;;;;;9.34;82.67;101127.22;4972659;28;20819;-78
2021/12/15 11:04:31;;;;;;;6.25;5.18;;;;;;;9.35;82.06;101136.81;4974697;28;20046;-77
2021/12/15 11:07:16;;;;;;;4.88;3.25;;;;;;;9.36;81.74;101128.06;4990963;28;20397;-78
2021/12/15 11:09:58;;;;;;;4.63;3.30;;;;;;;9.38;82.03;101127.13;4967393;28;20031;-77
2021/12/15 11:12:33;;;;;;;4.18;3.03;;;;;;;9.42;81.85;101127.91;4982962;28;20074;-78
2021/12/15 11:15:12;;;;;;;4.13;2.92;;;;;;;9.44;81.70;101131.38;4968888;28;20053;-78
2021/12/15 11:17:50;;;;;;;5.30;3.72;;;;;;;9.44;81.70;101136.63;4992481;28;20083;-78
2021/12/15 11:20:28;;;;;;;3.88;2.95;;;;;;;9.44;81.41;101137.50;4994786;28;20034;-77
2021/12/15 11:23:01;;;;;;;3.10;2.60;;;;;;;9.40;80.92;101130.59;4993920;28;20121;-77
2021/12/15 11:25:32;;;;;;;5.25;3.42;;;;;;;9.40;81.63;101119.16;4975972;28;20042;-78
2021/12/15 11:28:14;;;;;;;4.10;2.88;;;;;;;9.40;81.59;101122.69;4974222;28;20073;-79
2021/12/15 11:30:51;;;;;;;3.78;2.55;;;;;;;9.42;81.23;101117.38;4992223;28;20030;-77
2021/12/15 11:33:48;;;;;;;4.50;3.00;;;;;;;9.45;81.55;101126.06;4992317;28;20122;-78
2021/12/15 11:36:26;;;;;;;4.45;3.08;;;;;;;9.42;81.37;101125.25;4990834;28;20125;-78
2021/12/15 11:38:59;;;;;;;4.10;2.97;;;;;;;9.40;81.52;101132.31;4958405;28;20030;-77
2021/12/15 11:41:30;;;;;;;3.00;2.30;;;;;;;9.41;81.45;101120.91;4992353;28;20083;-77
2021/12/15 11:44:23;;;;;;;3.72;2.60;;;;;;;9.39;80.90;101122.72;4975462;28;20593;-77
2021/12/15 11:46:52;;;;;;;3.80;2.90;;;;;;;9.36;81.62;101112.25;4976377;28;20038;-76
2021/12/15 11:49:29;;;;;;;6.40;3.33;;;;;;;9.35;81.68;101115.78;4955571;28;20049;-76
2021/12/15 11:52:03;;;;;;;6.35;3.97;;;;;;;9.37;81.56;101113.97;4991961;28;20054;-76
2021/12/15 11:54:34;;;;;;;6.70;3.60;;;;;;;9.32;81.70;101118.47;5011237;28;20057;-76
2021/12/15 11:57:18;;;;;;;5.13;2.83;;;;;;;9.32;82.52;101110.59;5011456;28;20025;-75
2021/12/15 11:59:49;;;;;;;8.68;4.40;;;;;;;9.33;81.88;101112.31;4993764;28;20066;-80
2021/12/15 12:02:34;;;;;;;6.10;4.65;;;;;;;9.31;82.28;101119.41;4993995;28;20037;-77
2021/12/15 12:05:04;;;;;;;5.28;4.45;;;;;;;9.28;82.41;101116.81;4983860;28;20042;-77
2021/12/15 12:07:42;;;;;;;6.03;3.33;;;;;;;9.24;82.54;101114.25;4988285;28;20034;-81
2021/12/15 12:10:19;;;;;;;5.57;4.15;;;;;;;9.21;82.08;101108.22;4990322;28;20045;-74
2021/12/15 12:12:53;;;;;;;5.05;4.22;;;;;;;9.22;82.46;101109.94;4990378;28;20038;-76
2021/12/15 12:15:26;;;;;;;6.85;3.83;;;;;;;9.20;82.33;101102.06;5006454;28;20125;-75
2021/12/15 12:17:56;;;;;;;7.00;4.38;;;;;;;9.22;82.27;101109.94;5001777;28;20034;-78
2021/12/15 12:20:28;;;;;;;5.60;4.10;;;;;;;9.28;83.01;101106.28;5000733;28;20038;-78
2021/12/15 12:22:56;;;;;;;6.22;4.32;;;;;;;9.29;82.18;101106.25;4983521;28;20042;-75
2021/12/15 12:25:44;;;;;;;6.40;5.80;;;;;;;9.28;81.86;101106.28;5000343;28;20138;-78
2021/12/15 12:28:21;;;;;;;6.68;4.93;;;;;;;9.31;82.21;101115.00;4993371;28;20049;-78
2021/12/15 12:30:56;;;;;;;5.53;4.45;;;;;;;9.31;82.19;101109.72;4976094;28;20034;-76
2021/12/15 12:33:25;;;;;;;11.57;6.05;;;;;;;9.30;82.75;101109.75;4974416;28;20035;-77
2021/12/15 12:36:03;;;;;;;7.00;5.40;;;;;;;9.31;82.52;101111.50;4973862;28;20091;-77
2021/12/15 12:38:30;;;;;;;9.50;6.15;;;;;;;9.28;82.91;101101.91;4973443;28;21758;-77
2021/12/15 12:41:04;;;;;;;8.07;5.63;;;;;;;9.30;82.46;101107.97;4990435;28;20499;-78
2021/12/15 12:43:41;;;;;;;9.95;6.72;;;;;;;9.34;82.63;101107.03;4990601;28;20148;-77
2021/12/15 12:46:17;;;;;;;7.28;6.50;;;;;;;9.38;82.36;101097.31;4991297;28;20095;-79
2021/12/15 13:00:35;;;;;;;8.63;7.25;;;;;;;9.38;82.65;101094.69;4992159;28;20112;-77
2021/12/15 13:03:08;;;;;;;10.73;7.65;;;;;;;9.37;81.91;101095.56;4991321;28;20030;-78
2021/12/15 13:05:37;;;;;;;9.07;6.93;;;;;;;9.37;81.87;101088.53;4959028;28;20372;-78
2021/12/15 13:08:12;;;;;;;9.18;7.07;;;;;;;9.39;81.78;101101.66;4994792;28;20058;-77
2021/12/15 13:10:57;;;;;;;11.50;8.70;;;;;;;9.34;82.70;101096.50;4993094;28;20031;-76
2021/12/15 13:13:27;;;;;;;13.10;8.75;;;;;;;9.32;82.67;101090.41;4955623;28;20062;-77
2021/12/15 13:16:07;;;;;;;14.02;9.00;;;;;;;9.30;82.96;101080.81;4970461;28;20045;-78
2021/12/15 13:18:48;;;;;;;10.60;8.02;;;;;;;9.32;82.40;101079.88;4971062;28;20465;-76